Time;durP1;ratioP1;P1;durP2;ratioP2;P2;SDS_P1;SDS_P2;PMS_P1;PMS_P2;Temp;Humidity;BMP_temperature;BMP_pressure;BME280_temperature;BME280_humidity;BME280_pressure;Samples;Min_cycle;Max_cycle;Signal;HPM_P1;HPM_P2
2022/04/06 00:02:20;;;;;;;13.95;10.23;;;9.90;99.90;;;;;;5135662;27;20209;-73
2022/04/06 00:04:48;;;;;;;15.20;10.32;;;9.90;99.90;;;;;;5136219;27;20190;-74
2022/04/06 00:07:15;;;;;;;13.40;10.95;;;9.90;99.90;;;;;;5136287;27;20218;-73
2022/04/06 00:09:42;;;;;;;11.95;10.80;;;9.90;99.90;;;;;;5118093;28;20237;-73
2022/04/06 00:12:08;;;;;;;11.90;10.80;;;9.90;99.90;;;;;;5118447;28;20201;-74
2022/04/06 00:14:36;;;;;;;10.68;9.68;;;9.90;99.90;;;;;;5136738;28;20230;-74
2022/04/06 00:17:07;;;;;;;11.93;10.50;;;9.90;99.90;;;;;;5136456;28;20202;-73
2022/04/06 00:19:35;;;;;;;11.50;10.40;;;9.90;99.90;;;;;;5135923;28;20205;-73
2022/04/06 00:22:03;;;;;;;12.43;10.05;;;9.90;99.90;;;;;;5135821;28;20198;-73
2022/04/06 00:24:30;;;;;;;11.45;10.45;;;9.90;99.90;;;;;;5101224;28;20554;-73
2022/04/06 00:26:56;;;;;;;11.48;10.07;;;10.00;99.90;;;;;;5136466;28;20193;-73
2022/04/06 00:29:23;;;;;;;10.85;9.50;;;10.00;99.90;;;;;;5117941;28;20339;-73
2022/04/06 00:31:50;;;;;;;9.60;8.60;;;10.00;99.90;;;;;;5136009;28;20212;-73
2022/04/06 00:34:16;;;;;;;9.75;8.95;;;10.00;99.90;;;;;;5135695;28;20311;-73
2022/04/06 00:36:44;;;;;;;10.55;9.52;;;10.00;99.90;;;;;;5136421;28;20209;-73
2022/04/06 00:39:12;;;;;;;10.13;9.13;;;10.00;99.90;;;;;;5117771;28;20685;-73
2022/04/06 00:41:39;;;;;;;9.73;8.73;;;10.00;99.90;;;;;;5135387;28;20200;-73
2022/04/06 00:44:13;;;;;;;10.10;9.18;;;10.00;99.90;;;;;;5135622;28;20201;-73
2022/04/06 00:46:41;;;;;;;10.13;9.20;;;10.00;99.90;;;;;;5135879;28;20230;-73
2022/04/06 00:49:11;;;;;;;9.45;8.55;;;10.00;99.90;;;;;;5135630;28;20254;-73
2022/04/06 00:51:43;;;;;;;8.90;7.78;;;10.10;99.90;;;;;;5135545;28;20608;-73
2022/04/06 00:54:14;;;;;;;10.15;8.90;;;10.00;99.90;;;;;;5118271;28;20187;-73
2022/04/06 00:56:42;;;;;;;9.00;8.20;;;10.00;99.90;;;;;;5101165;28;20201;-73
2022/04/06 00:59:09;;;;;;;8.57;7.78;;;10.10;99.90;;;;;;5135935;28;20201;-73
2022/04/06 01:01:36;;;;;;;9.43;8.52;;;10.10;99.90;;;;;;5118787;27;20202;-73
2022/04/06 01:04:03;;;;;;;8.15;7.35;;;10.10;99.90;;;;;;5139765;27;20198;-74
2022/04/06 01:06:30;;;;;;;8.98;8.18;;;10.10;99.90;;;;;;5121783;27;20578;-74
2022/04/06 01:08:57;;;;;;;9.45;8.23;;;10.10;99.90;;;;;;5122079;27;20249;-74
2022/04/06 01:11:24;;;;;;;9.43;8.60;;;10.10;99.90;;;;;;5140893;27;20205;-74
2022/04/06 01:13:53;;;;;;;9.05;8.25;;;10.10;99.90;;;;;;5140250;27;20202;-73
2022/04/06 01:16:19;;;;;;;9.30;8.50;;;10.10;99.90;;;;;;5121622;27;20198;-73
2022/04/06 01:18:46;;;;;;;7.88;7.28;;;10.10;99.90;;;;;;5141103;27;20277;-74
2022/04/06 01:21:13;;;;;;;8.63;7.93;;;10.10;99.90;;;;;;5141224;27;20232;-73
2022/04/06 01:23:43;;;;;;;8.82;7.50;;;10.10;99.90;;;;;;5122823;27;20198;-74
2022/04/06 01:26:11;;;;;;;8.57;7.68;;;10.10;99.90;;;;;;5140998;27;20205;-74
2022/04/06 01:28:38;;;;;;;7.20;6.60;;;10.10;99.90;;;;;;5140308;27;20205;-73
2022/04/06 01:31:05;;;;;;;11.57;7.40;;;10.10;99.90;;;;;;5140327;27;20198;-73
2022/04/06 01:33:31;;;;;;;8.23;7.53;;;10.10;99.90;;;;;;5140191;27;20208;-73
2022/04/06 01:35:59;;;;;;;9.30;8.32;;;10.10;99.90;;;;;;5139660;27;20212;-73
2022/04/06 01:38:27;;;;;;;7.63;7.03;;;10.10;99.90;;;;;;5140168;27;20575;-73
2022/04/06 01:40:53;;;;;;;7.65;7.05;;;10.10;99.90;;;;;;5139932;27;20218;-74
2022/04/06 01:43:21;;;;;;;9.32;8.52;;;10.10;99.90;;;;;;5139625;27;20197;-74
2022/04/06 01:45:47;;;;;;;7.57;6.88;;;10.10;99.90;;;;;;5139465;27;20251;-72
2022/04/06 01:48:15;;;;;;;8.02;7.35;;;10.10;99.90;;;;;;5137676;27;20205;-73
2022/04/06 01:53:29;;;;;;;8.70;8.10;;;10.10;99.90;;;;;;5138450;27;20189;-72
2022/04/06 01:55:56;;;;;;;8.60;7.80;;;10.10;99.90;;;;;;5140095;27;20250;-72
2022/04/06 01:58:23;;;;;;;7.25;6.63;;;10.10;99.90;;;;;;5140229;27;20205;-72
2022/04/06 02:00:51;;;;;;;7.47;6.85;;;10.10;99.90;;;;;;5139950;27;20221;-73
2022/04/06 02:03:18;;;;;;;9.20;6.88;;;10.10;99.90;;;;;;5139711;27;20476;-73
2022/04/06 02:05:46;;;;;;;7.28;6.68;;;10.10;99.90;;;;;;5139543;27;20217;-73
2022/04/06 02:08:12;;;;;;;9.70;7.15;;;10.10;99.90;;;;;;5138652;27;20222;-73
2022/04/06 02:10:39;;;;;;;7.78;7.07;;;10.10;99.90;;;;;;5104223;27;20206;-72
2022/04/06 02:13:06;;;;;;;22.95;20.45;;;10.10;99.90;;;;;;5138352;27;20559;-73
2022/04/06 02:15:32;;;;;;;29.98;26.67;;;10.10;99.90;;;;;;5139268;27;20274;-73
2022/04/06 02:18:00;;;;;;;7.00;6.30;;;10.10;99.90;;;;;;5139543;27;20201;-73
2022/04/06 02:20:27;;;;;;;126.38;76.38;;;10.10;99.90;;;;;;5138517;27;20275;-73
2022/04/06 02:22:54;;;;;;;25.65;16.85;;;10.10;99.90;;;;;;5138103;27;20779;-72
2022/04/06 02:25:20;;;;;;;9.88;9.02;;;10.10;99.90;;;;;;5139252;27;20198;-72
2022/04/06 02:27:51;;;;;;;41.08;31.55;;;10.10;99.90;;;;;;5120311;27;20194;-72
2022/04/06 02:30:19;;;;;;;14.20;12.80;;;10.10;99.90;;;;;;5138556;27;20190;-72
2022/04/06 02:32:46;;;;;;;8.45;7.72;;;10.10;99.90;;;;;;5138835;27;20235;-72
2022/04/06 02:35:13;;;;;;;8.02;7.28;;;10.10;99.90;;;;;;5138253;27;20405;-73
2022/04/06 02:37:41;;;;;;;12.05;10.85;;;10.10;99.90;;;;;;5138787;27;20574;-73
2022/04/06 02:40:09;;;;;;;14.18;8.65;;;10.10;99.90;;;;;;5138521;27;20224;-73
2022/04/06 02:42:37;;;;;;;8.38;7.60;;;10.10;99.90;;;;;;5121350;27;20277;-73
2022/04/06 02:45:03;;;;;;;13.48;12.20;;;10.10;99.90;;;;;;5139875;27;20197;-73
2022/04/06 02:47:30;;;;;;;9.50;8.70;;;10.20;99.90;;;;;;5139248;27;20645;-73
2022/04/06 02:49:56;;;;;;;9.55;8.77;;;10.20;99.90;;;;;;5120563;27;20198;-73
2022/04/06 02:52:23;;;;;;;9.05;8.15;;;10.20;99.90;;;;;;5138733;27;20208;-73
2022/04/06 02:54:49;;;;;;;10.63;9.63;;;10.20;99.90;;;;;;5138572;27;20617;-73
2022/04/06 02:57:15;;;;;;;10.20;9.27;;;10.20;99.90;;;;;;5119995;27;20585;-73
2022/04/06 02:59:42;;;;;;;10.18;7.13;;;10.20;99.90;;;;;;5138680;27;20621;-73
2022/04/06 03:02:08;;;;;;;7.75;7.05;;;10.20;99.90;;;;;;5139492;27;20202;-73
2022/04/06 03:04:35;;;;;;;8.57;7.70;;;10.20;99.90;;;;;;5138981;27;20198;-73
2022/04/06 03:07:01;;;;;;;7.40;6.40;;;10.10;99.90;;;;;;5138316;27;20320;-73
2022/04/06 03:09:28;;;;;;;7.38;6.68;;;10.10;99.90;;;;;;5138799;27;20230;-73
2022/04/06 03:11:54;;;;;;;7.63;6.93;;;10.20;99.90;;;;;;5138545;27;20223;-72
2022/04/06 03:14:21;;;;;;;6.55;6.05;;;10.20;99.90;;;;;;5137176;27;20201;-72
2022/04/06 03:16:47;;;;;;;7.25;6.70;;;10.10;99.90;;;;;;5137579;27;20197;-72
2022/04/06 03:19:14;;;;;;;7.03;6.43;;;10.10;99.90;;;;;;5119384;27;20206;-72
2022/04/06 03:21:40;;;;;;;7.22;6.60;;;10.20;99.90;;;;;;5103221;27;20213;-72
2022/04/06 03:24:06;;;;;;;6.90;6.30;;;10.10;99.90;;;;;;5138428;27;20201;-73
2022/04/06 03:26:33;;;;;;;7.50;6.75;;;10.10;99.90;;;;;;5139096;27;20316;-73
2022/04/06 03:28:59;;;;;;;7.25;6.65;;;10.10;99.90;;;;;;5139238;27;20250;-73
2022/04/06 03:31:26;;;;;;;7.93;7.22;;;10.10;99.90;;;;;;5120257;27;20539;-73
2022/04/06 03:33:52;;;;;;;6.80;6.25;;;10.10;99.90;;;;;;5138044;27;20220;-73
2022/04/06 03:36:19;;;;;;;7.03;6.38;;;10.10;99.90;;;;;;5120018;27;20680;-73
2022/04/06 03:38:45;;;;;;;7.40;6.78;;;10.10;99.90;;;;;;5138260;27;20198;-73
2022/04/06 03:41:12;;;;;;;7.32;6.72;;;10.10;99.90;;;;;;5138484;27;20271;-73
2022/04/06 03:43:38;;;;;;;7.95;6.55;;;10.10;99.90;;;;;;5103469;28;20202;-73
2022/04/06 03:46:05;;;;;;;8.65;6.85;;;10.10;99.90;;;;;;5120588;27;20547;-73
2022/04/06 03:48:31;;;;;;;7.00;6.40;;;10.00;99.90;;;;;;5139042;27;20212;-73
2022/04/06 03:50:58;;;;;;;8.00;7.30;;;10.00;99.90;;;;;;5138089;27;20202;-73
2022/04/06 03:53:24;;;;;;;7.28;6.60;;;10.00;99.90;;;;;;5137601;27;20202;-73
2022/04/06 03:55:51;;;;;;;7.47;6.78;;;10.00;99.90;;;;;;5119304;27;20238;-73
2022/04/06 03:58:17;;;;;;;7.90;7.10;;;10.00;99.90;;;;;;5137940;27;20198;-73
2022/04/06 04:00:44;;;;;;;7.80;7.10;;;10.00;99.90;;;;;;5138179;27;20218;-73
2022/04/06 04:03:10;;;;;;;7.60;7.00;;;10.00;99.90;;;;;;5138805;27;20250;-73
2022/04/06 04:05:37;;;;;;;7.40;6.70;;;10.00;99.90;;;;;;5120253;27;20225;-73
2022/04/06 04:08:04;;;;;;;8.25;6.57;;;10.00;99.90;;;;;;5137891;27;20792;-73
2022/04/06 04:10:30;;;;;;;7.18;6.57;;;10.00;99.90;;;;;;5138096;27;20201;-73
2022/04/06 04:12:56;;;;;;;6.07;5.60;;;10.00;99.90;;;;;;5137864;27;20201;-73
2022/04/06 04:15:23;;;;;;;7.50;6.90;;;10.00;99.90;;;;;;5138333;28;20198;-73
2022/04/06 04:17:49;;;;;;;6.88;6.10;;;10.00;99.90;;;;;;5119407;28;20194;-73
2022/04/06 04:20:16;;;;;;;6.90;6.30;;;10.00;99.90;;;;;;5138535;28;20274;-73
2022/04/06 04:22:42;;;;;;;7.05;6.45;;;10.00;99.90;;;;;;5120416;28;20198;-72
2022/04/06 04:25:10;;;;;;;8.35;6.68;;;10.00;99.90;;;;;;5138914;28;20201;-73
2022/04/06 04:27:37;;;;;;;6.72;6.13;;;10.00;99.90;;;;;;5118945;28;20202;-73
2022/04/06 04:30:04;;;;;;;6.45;5.85;;;10.00;99.90;;;;;;5137168;28;20210;-73
2022/04/06 04:32:31;;;;;;;9.38;6.60;;;10.00;99.90;;;;;;5137355;28;20197;-73
2022/04/06 04:34:59;;;;;;;7.50;6.80;;;10.00;99.90;;;;;;5137265;28;20663;-73
2022/04/06 04:37:25;;;;;;;6.95;6.30;;;10.00;99.90;;;;;;5141095;27;20205;-73
2022/04/06 04:39:52;;;;;;;7.05;6.43;;;10.00;99.90;;;;;;5141972;27;20201;-73
2022/04/06 04:42:19;;;;;;;6.43;5.93;;;10.00;99.90;;;;;;5123855;27;20273;-73
2022/04/06 04:44:46;;;;;;;7.43;6.78;;;10.00;99.90;;;;;;5142096;27;20198;-73
2022/04/06 04:47:12;;;;;;;7.63;6.93;;;10.00;99.90;;;;;;5142035;27;20197;-73
2022/04/06 04:49:38;;;;;;;7.40;6.70;;;10.00;99.90;;;;;;5141487;27;20197;-73
2022/04/06 04:52:05;;;;;;;6.57;5.90;;;10.00;99.90;;;;;;5141569;27;20641;-73
2022/04/06 04:54:31;;;;;;;7.85;6.75;;;10.00;99.90;;;;;;5142081;27;20202;-72
2022/04/06 04:56:58;;;;;;;6.18;5.68;;;10.00;99.90;;;;;;5141920;27;20217;-73
2022/04/06 04:59:25;;;;;;;6.53;5.93;;;10.00;99.90;;;;;;5141794;27;20198;-73
2022/04/06 05:01:51;;;;;;;6.68;6.07;;;10.00;99.90;;;;;;5141965;27;20228;-73
2022/04/06 05:04:18;;;;;;;7.93;7.20;;;10.00;99.90;;;;;;5138769;27;20676;-73
2022/04/06 05:06:44;;;;;;;8.02;7.32;;;10.00;99.90;;;;;;5140270;27;20236;-73
2022/04/06 05:09:11;;;;;;;6.60;6.00;;;10.00;99.90;;;;;;5139988;27;20705;-73
2022/04/06 05:11:37;;;;;;;6.68;5.75;;;10.00;99.90;;;;;;5122205;27;20201;-72
2022/04/06 05:14:05;;;;;;;7.03;6.40;;;10.00;99.90;;;;;;5138798;27;20209;-73
2022/04/06 05:16:31;;;;;;;8.05;7.30;;;10.00;99.90;;;;;;5140092;27;20213;-73
2022/04/06 05:18:58;;;;;;;7.50;6.80;;;10.00;99.90;;;;;;5122287;27;20488;-73
2022/04/06 05:21:25;;;;;;;7.38;6.78;;;10.00;99.90;;;;;;5139782;27;20618;-73
2022/04/06 05:23:51;;;;;;;6.78;6.18;;;10.00;99.90;;;;;;5120876;27;20247;-73
2022/04/06 05:26:18;;;;;;;6.82;6.22;;;10.00;99.90;;;;;;5139669;27;20198;-73
2022/04/06 05:28:44;;;;;;;6.82;6.18;;;10.00;99.90;;;;;;5140022;27;20194;-73
2022/04/06 05:31:10;;;;;;;6.53;5.97;;;10.00;99.90;;;;;;5139562;27;20208;-73
2022/04/06 05:33:37;;;;;;;6.85;6.25;;;10.10;99.90;;;;;;5139281;27;20201;-72
2022/04/06 05:36:04;;;;;;;6.55;5.75;;;10.10;99.90;;;;;;5140715;27;20206;-73
2022/04/06 05:38:34;;;;;;;6.80;5.93;;;10.10;99.90;;;;;;5137795;27;21264;-73
2022/04/06 05:41:02;;;;;;;6.30;5.75;;;10.10;99.90;;;;;;5137524;27;20217;-71
2022/04/06 05:43:29;;;;;;;5.82;5.35;;;10.10;99.90;;;;;;5138746;27;20197;-71
2022/04/06 05:45:55;;;;;;;6.70;5.68;;;10.10;99.90;;;;;;5139004;27;20194;-72
2022/04/06 05:48:22;;;;;;;5.25;4.85;;;10.10;99.90;;;;;;5139105;27;20258;-72
2022/04/06 05:50:48;;;;;;;6.90;6.30;;;10.10;99.90;;;;;;5138737;27;20258;-72
2022/04/06 05:53:15;;;;;;;5.97;5.38;;;10.00;99.90;;;;;;5118747;27;20202;-71
2022/04/06 05:55:43;;;;;;;6.63;6.13;;;10.00;99.90;;;;;;5119134;27;20679;-72
2022/04/06 05:58:10;;;;;;;8.27;6.18;;;10.00;99.90;;;;;;5138254;27;20568;-72
2022/04/06 06:00:36;;;;;;;5.50;5.03;;;10.00;99.90;;;;;;5102684;27;20210;-72
2022/04/06 06:03:03;;;;;;;5.72;5.28;;;10.00;99.90;;;;;;5138472;27;20205;-71
2022/04/06 06:05:29;;;;;;;6.07;5.50;;;10.00;99.90;;;;;;5137555;27;20214;-72
2022/04/06 06:07:56;;;;;;;6.40;5.90;;;10.00;99.90;;;;;;5138474;27;20234;-71
2022/04/06 06:10:22;;;;;;;15.68;6.35;;;10.00;99.90;;;;;;5138828;27;20209;-71
2022/04/06 06:12:49;;;;;;;6.38;5.78;;;10.00;99.90;;;;;;5138806;27;20684;-73
2022/04/06 06:15:15;;;;;;;6.40;5.90;;;9.90;99.90;;;;;;5138631;27;20193;-72
2022/04/06 06:17:42;;;;;;;6.65;6.05;;;9.90;99.90;;;;;;5120855;27;20201;-71
2022/04/06 06:20:09;;;;;;;7.35;6.03;;;9.90;99.90;;;;;;5119677;27;20195;-72
2022/04/06 06:22:35;;;;;;;7.80;5.82;;;9.90;99.90;;;;;;5139043;27;20201;-71
2022/04/06 06:25:03;;;;;;;6.72;6.13;;;10.00;99.90;;;;;;5121152;27;20578;-73
2022/04/06 06:27:29;;;;;;;5.70;5.22;;;10.00;99.90;;;;;;5141209;27;20180;-72
2022/04/06 06:29:56;;;;;;;6.10;5.50;;;10.00;99.90;;;;;;5139532;27;20204;-72
2022/04/06 06:32:22;;;;;;;6.13;5.60;;;10.10;99.90;;;;;;5139436;27;20480;-72
2022/04/06 06:34:49;;;;;;;5.63;5.20;;;10.20;99.90;;;;;;5138251;27;20198;-72
2022/04/06 06:37:15;;;;;;;5.30;4.85;;;10.20;99.90;;;;;;5119053;27;20204;-72
2022/04/06 06:39:42;;;;;;;5.10;4.70;;;10.20;99.90;;;;;;5119271;27;20557;-71
2022/04/06 06:42:08;;;;;;;4.63;4.30;;;10.20;99.90;;;;;;5119289;27;20224;-71
2022/04/06 06:44:35;;;;;;;5.93;5.32;;;10.30;99.90;;;;;;5137593;27;20285;-72
2022/04/06 06:47:02;;;;;;;5.30;4.65;;;10.30;99.90;;;;;;5119161;27;20202;-72
2022/04/06 06:49:29;;;;;;;4.30;3.90;;;10.30;99.90;;;;;;5137649;27;20204;-71
2022/04/06 06:51:55;;;;;;;4.80;4.32;;;10.30;99.90;;;;;;5137653;27;20255;-71
2022/04/06 06:54:21;;;;;;;4.78;4.05;;;10.30;99.90;;;;;;5136595;27;20205;-71
2022/04/06 06:56:48;;;;;;;4.47;4.18;;;10.40;99.90;;;;;;5137194;27;20266;-72
2022/04/06 06:59:14;;;;;;;6.30;4.00;;;10.40;99.90;;;;;;5136964;27;20190;-72
2022/04/06 07:01:41;;;;;;;4.45;4.15;;;10.40;99.90;;;;;;5137326;27;20210;-72
2022/04/06 07:04:07;;;;;;;5.68;5.05;;;10.40;99.90;;;;;;5137018;27;20197;-71
2022/04/06 07:06:33;;;;;;;5.35;4.85;;;10.40;99.90;;;;;;5136923;27;20218;-71
2022/04/06 07:09:00;;;;;;;4.63;4.25;;;10.40;99.90;;;;;;5136372;27;20730;-71
2022/04/06 07:11:26;;;;;;;5.43;4.65;;;10.40;99.90;;;;;;5117569;27;20205;-71
2022/04/06 07:13:53;;;;;;;5.30;4.80;;;10.40;99.90;;;;;;5135817;27;20222;-71
2022/04/06 07:16:19;;;;;;;4.93;4.40;;;10.40;99.90;;;;;;5136357;27;20206;-71
2022/04/06 07:18:45;;;;;;;4.72;4.43;;;10.40;99.90;;;;;;5136618;27;20619;-72
2022/04/06 07:21:12;;;;;;;4.55;4.15;;;10.40;99.90;;;;;;5136411;27;20228;-73
2022/04/06 07:23:40;;;;;;;4.50;4.10;;;10.40;99.90;;;;;;5117691;27;20213;-73
2022/04/06 07:26:06;;;;;;;6.68;4.03;;;10.40;99.90;;;;;;5136985;27;20762;-74
2022/04/06 07:28:33;;;;;;;4.85;4.45;;;10.40;99.90;;;;;;5137971;27;20209;-72
2022/04/06 07:30:59;;;;;;;4.75;4.30;;;10.40;99.90;;;;;;5136826;27;20247;-72
2022/04/06 07:33:26;;;;;;;4.35;4.05;;;10.40;99.90;;;;;;5136904;27;20569;-73
2022/04/06 07:35:52;;;;;;;3.90;3.67;;;10.40;99.90;;;;;;5118671;27;20197;-72
2022/04/06 07:38:21;;;;;;;5.57;4.55;;;10.40;99.90;;;;;;5136344;27;20205;-71
2022/04/06 07:40:48;;;;;;;4.65;4.07;;;10.50;99.90;;;;;;5137416;27;20229;-72
2022/04/06 07:43:14;;;;;;;4.00;3.70;;;10.50;99.90;;;;;;5137735;27;20197;-73
2022/04/06 07:45:40;;;;;;;4.65;4.25;;;10.50;99.90;;;;;;5120599;27;20202;-73
2022/04/06 07:48:07;;;;;;;4.45;4.07;;;10.60;99.90;;;;;;5137564;27;20201;-72
2022/04/06 07:50:33;;;;;;;3.63;3.42;;;10.80;99.90;;;;;;5136091;27;20205;-72
2022/04/06 07:53:00;;;;;;;4.15;3.65;;;11.00;99.90;;;;;;5118133;27;20193;-72
2022/04/06 07:55:27;;;;;;;4.13;3.83;;;11.10;99.90;;;;;;5137141;27;20190;-72
2022/04/06 07:57:53;;;;;;;3.83;3.40;;;11.30;99.90;;;;;;5137263;27;20210;-72
2022/04/06 08:00:20;;;;;;;5.00;3.10;;;11.20;99.90;;;;;;5136583;27;20198;-72
2022/04/06 08:02:48;;;;;;;3.80;3.40;;;11.30;99.90;;;;;;5118368;28;20218;-72
2022/04/06 08:05:14;;;;;;;6.18;3.30;;;11.40;99.90;;;;;;5135766;27;20234;-71
2022/04/06 08:07:43;;;;;;;3.95;3.60;;;11.40;99.90;;;;;;5137038;27;20824;-72
2022/04/06 08:10:12;;;;;;;4.32;3.75;;;11.50;99.90;;;;;;5135629;27;20198;-72
2022/04/06 08:12:39;;;;;;;2.33;2.22;;;11.50;99.90;;;;;;5135595;27;20202;-72
2022/04/06 08:15:06;;;;;;;3.47;3.17;;;11.50;99.90;;;;;;5135101;27;20205;-71
2022/04/06 08:17:37;;;;;;;3.15;2.70;;;11.50;99.90;;;;;;5135297;28;20206;-72
2022/04/06 08:20:05;;;;;;;4.07;2.85;;;11.50;99.90;;;;;;5135821;28;20193;-72
2022/04/06 08:22:32;;;;;;;3.25;2.95;;;11.50;99.90;;;;;;5135752;28;20222;-72
2022/04/06 08:24:59;;;;;;;4.22;2.83;;;11.50;99.90;;;;;;5136027;28;20201;-72
2022/04/06 08:27:27;;;;;;;4.00;3.10;;;11.50;99.90;;;;;;5135978;28;20205;-72
2022/04/06 08:29:55;;;;;;;3.50;3.30;;;11.40;99.90;;;;;;5136023;28;20316;-72
2022/04/06 08:32:21;;;;;;;4.28;3.92;;;11.50;99.90;;;;;;5135900;28;20575;-72
2022/04/06 08:34:48;;;;;;;3.28;2.97;;;11.50;99.90;;;;;;5135286;28;20202;-72
2022/04/06 08:37:14;;;;;;;3.92;3.63;;;11.60;99.90;;;;;;5135447;28;20580;-71
2022/04/06 08:39:41;;;;;;;3.97;3.70;;;11.70;99.90;;;;;;5135562;28;20201;-71
2022/04/06 08:42:09;;;;;;;3.70;3.40;;;11.80;99.90;;;;;;5134708;28;20688;-73
2022/04/06 08:44:36;;;;;;;3.85;3.53;;;11.90;99.90;;;;;;5134738;28;20600;-71
2022/04/06 08:47:05;;;;;;;3.60;3.30;;;12.00;99.90;;;;;;5117171;28;20194;-71
2022/04/06 08:49:35;;;;;;;3.23;3.03;;;12.20;99.90;;;;;;5134875;28;20566;-71
2022/04/06 08:52:06;;;;;;;3.97;3.67;;;12.20;99.90;;;;;;5116889;28;20606;-71
2022/04/06 08:54:32;;;;;;;4.30;4.00;;;12.20;99.90;;;;;;5134687;28;20543;-71
2022/04/06 08:56:59;;;;;;;4.57;3.35;;;12.20;99.90;;;;;;5134669;28;20651;-71
2022/04/06 08:59:26;;;;;;;3.80;3.50;;;12.40;99.90;;;;;;5135109;28;20202;-71
2022/04/06 09:01:52;;;;;;;3.78;3.58;;;12.40;99.90;;;;;;5134131;28;20689;-72
2022/04/06 09:04:20;;;;;;;3.97;3.67;;;12.40;99.90;;;;;;5134546;28;20603;-72
2022/04/06 09:06:47;;;;;;;4.60;3.33;;;12.70;99.90;;;;;;5117788;28;21278;-72
2022/04/06 09:09:20;;;;;;;4.30;3.75;;;13.00;99.90;;;;;;5134362;28;20647;-72
2022/04/06 09:11:47;;;;;;;4.75;3.85;;;12.60;99.90;;;;;;5134978;28;20726;-72
2022/04/06 09:14:14;;;;;;;3.80;3.53;;;12.50;99.90;;;;;;5135004;28;20239;-71
2022/04/06 09:16:40;;;;;;;5.03;3.60;;;12.40;99.90;;;;;;5134824;28;20595;-71
2022/04/06 09:19:09;;;;;;;3.83;3.53;;;12.60;99.90;;;;;;5135709;28;21157;-71
2022/04/06 09:21:43;;;;;;;3.57;3.27;;;12.90;99.90;;;;;;5135338;27;20681;-71
2022/04/06 09:24:15;;;;;;;4.20;3.80;;;12.80;99.90;;;;;;5137877;27;20629;-72
2022/04/06 09:26:41;;;;;;;3.47;3.27;;;13.10;99.90;;;;;;5121105;27;21248;-72
2022/04/06 09:29:12;;;;;;;4.60;3.53;;;12.90;99.90;;;;;;5139274;27;20981;-71
2022/04/06 09:31:40;;;;;;;4.05;3.75;;;12.90;99.90;;;;;;5138964;27;20631;-71
2022/04/06 09:34:12;;;;;;;4.30;3.87;;;12.70;99.90;;;;;;5120971;27;20202;-72
2022/04/06 09:36:38;;;;;;;5.33;4.27;;;12.70;99.90;;;;;;5139460;27;20619;-72
2022/04/06 09:39:07;;;;;;;4.80;4.40;;;12.60;99.90;;;;;;5104324;27;20611;-71
2022/04/06 09:41:53;;;;;;;4.80;4.43;;;12.70;99.90;;;;;;5138948;27;20364;-72
2022/04/06 09:50:20;;;;;;;4.30;3.90;;;12.60;99.90;;;;;;5139030;27;20261;-72
2022/04/06 09:52:48;;;;;;;3.47;3.17;;;12.60;99.90;;;;;;5138227;27;20611;-71
2022/04/06 09:55:16;;;;;;;6.20;3.93;;;12.50;99.90;;;;;;5138968;27;20668;-71
2022/04/06 09:57:50;;;;;;;3.73;3.53;;;12.50;99.90;;;;;;5138276;27;21157;-71
2022/04/06 10:00:18;;;;;;;4.10;3.77;;;12.60;99.90;;;;;;5137841;27;20610;-72
2022/04/06 10:02:48;;;;;;;4.37;3.97;;;12.70;99.90;;;;;;5137367;27;20654;-72
2022/04/06 10:05:18;;;;;;;4.60;4.30;;;12.70;99.90;;;;;;5120307;27;20626;-72
2022/04/06 10:07:45;;;;;;;4.37;4.00;;;12.70;99.90;;;;;;5136955;27;21057;-71
2022/04/06 10:10:12;;;;;;;5.43;4.90;;;12.50;99.90;;;;;;5137814;27;20630;-72
2022/04/06 10:12:40;;;;;;;4.37;4.07;;;12.70;99.90;;;;;;5138178;27;20656;-70
2022/04/06 10:15:07;;;;;;;4.90;4.50;;;13.00;99.90;;;;;;5118971;27;20626;-71
2022/04/06 10:17:35;;;;;;;4.57;4.10;;;13.30;99.90;;;;;;5119606;27;20619;-73
2022/04/06 10:20:21;;;;;;;3.60;3.30;;;13.30;99.90;;;;;;5138048;27;21286;-72
2022/04/06 10:23:10;;;;;;;9.30;4.33;;;13.20;99.90;;;;;;5138669;27;20989;-73
2022/04/06 10:25:56;;;;;;;4.30;4.00;;;13.20;99.90;;;;;;5139232;27;20913;-73
2022/04/06 10:28:23;;;;;;;4.10;3.53;;;13.30;99.90;;;;;;5138427;27;20576;-73
2022/04/06 10:31:22;;;;;;;3.77;3.47;;;13.10;99.90;;;;;;5139720;27;20749;-72
2022/04/06 10:33:50;;;;;;;3.40;3.20;;;13.30;99.90;;;;;;5137959;27;20599;-72
2022/04/06 10:36:17;;;;;;;4.53;3.07;;;13.50;99.90;;;;;;5120400;27;20710;-72
2022/04/06 10:39:09;;;;;;;3.97;3.63;;;13.20;99.90;;;;;;5137485;27;20622;-72
2022/04/06 10:41:39;;;;;;;3.80;3.50;;;13.10;99.90;;;;;;5138358;27;20623;-73
2022/04/06 10:44:06;;;;;;;4.33;3.87;;;13.10;99.90;;;;;;5139152;27;21100;-73
2022/04/06 10:46:38;;;;;;;3.47;2.87;;;13.00;99.90;;;;;;5138051;27;20620;-72
2022/04/06 10:49:12;;;;;;;3.83;3.40;;;13.20;99.90;;;;;;5138303;27;20564;-73
2022/04/06 10:51:43;;;;;;;3.80;3.50;;;13.30;99.90;;;;;;5137615;27;21165;-73
2022/04/06 10:54:13;;;;;;;3.87;2.90;;;13.30;99.90;;;;;;5119375;27;21207;-73
2022/04/06 10:56:54;;;;;;;3.10;2.80;;;13.60;99.90;;;;;;5137569;27;21175;-73
2022/04/06 10:59:21;;;;;;;4.73;3.40;;;14.10;99.90;;;;;;5136962;27;21169;-73
2022/04/06 11:02:09;;;;;;;3.37;3.07;;;14.20;99.90;;;;;;5101822;27;21073;-73
2022/04/06 11:04:42;;;;;;;4.03;2.80;;;14.10;99.90;;;;;;5137733;27;20611;-73
2022/04/06 11:07:10;;;;;;;3.20;2.90;;;14.50;99.90;;;;;;5137299;27;20647;-73
2022/04/06 11:12:32;;;;;;;3.53;2.90;;;13.90;99.90;;;;;;5137475;27;20600;-73
2022/04/06 11:14:59;;;;;;;2.90;2.70;;;14.30;99.90;;;;;;5136696;27;20982;-72
2022/04/06 11:17:32;;;;;;;3.50;2.90;;;13.80;99.90;;;;;;5137384;27;20608;-72
2022/04/06 11:20:00;;;;;;;2.90;2.70;;;13.80;99.90;;;;;;5136672;27;20623;-73
2022/04/06 11:22:26;;;;;;;3.00;2.40;;;13.90;99.90;;;;;;5118685;27;20659;-72
2022/04/06 11:24:54;;;;;;;3.90;3.17;;;13.90;99.90;;;;;;5135841;27;20616;-73
2022/04/06 11:27:34;;;;;;;3.23;2.93;;;13.90;99.90;;;;;;5136786;27;20623;-73
2022/04/06 11:30:07;;;;;;;3.50;3.20;;;14.20;99.90;;;;;;5137147;27;20576;-73
2022/04/06 11:32:34;;;;;;;3.97;2.80;;;14.10;99.90;;;;;;5136980;27;20627;-73
2022/04/06 11:35:08;;;;;;;3.43;3.13;;;14.00;99.90;;;;;;5118543;27;20623;-72
2022/04/06 11:37:48;;;;;;;5.40;2.60;;;13.90;99.90;;;;;;5138020;27;20561;-73
2022/04/06 11:40:21;;;;;;;2.90;2.57;;;13.90;99.90;;;;;;5118774;27;20646;-73
2022/04/06 11:42:49;;;;;;;3.20;2.90;;;14.20;99.90;;;;;;5137087;27;20678;-73
2022/04/06 11:45:27;;;;;;;3.60;3.00;;;13.90;99.90;;;;;;5136895;27;20619;-73
2022/04/06 11:47:59;;;;;;;3.70;2.60;;;14.00;99.90;;;;;;5136767;27;20674;-72
2022/04/06 11:50:31;;;;;;;4.17;3.00;;;14.20;99.90;;;;;;5137292;27;20607;-73
2022/04/06 11:53:05;;;;;;;2.87;2.40;;;14.50;99.90;;;;;;5137552;27;20611;-73
2022/04/06 11:55:48;;;;;;;2.70;2.50;;;14.80;99.90;;;;;;5137548;27;21145;-73
2022/04/06 11:58:38;;;;;;;3.40;3.10;;;15.10;99.90;;;;;;5118365;27;21230;-73
2022/04/06 12:01:17;;;;;;;3.60;3.30;;;15.10;99.90;;;;;;5122045;27;20657;-73
2022/04/06 12:03:46;;;;;;;5.37;3.87;;;15.20;99.90;;;;;;5118482;27;21011;-73
2022/04/06 12:06:15;;;;;;;3.10;2.90;;;15.10;99.90;;;;;;5136103;27;20642;-73
2022/04/06 12:08:47;;;;;;;3.23;2.93;;;15.20;99.90;;;;;;5136657;27;20642;-73
2022/04/06 12:11:18;;;;;;;3.60;3.30;;;15.30;99.90;;;;;;5118717;27;20639;-73
2022/04/06 12:13:45;;;;;;;3.67;2.93;;;16.10;99.90;;;;;;5117925;28;21188;-73
2022/04/06 12:16:12;;;;;;;3.60;2.90;;;16.00;99.90;;;;;;5101504;28;20606;-73
2022/04/06 12:18:40;;;;;;;3.77;3.07;;;15.50;99.90;;;;;;5136592;28;20976;-73
2022/04/06 12:21:21;;;;;;;4.77;3.00;;;15.20;99.90;;;;;;5136580;28;20740;-73
2022/04/06 12:23:48;;;;;;;2.50;2.30;;;14.90;99.90;;;;;;5136288;28;21279;-73
2022/04/06 12:26:15;;;;;;;4.53;2.40;;;14.80;99.90;;;;;;5100284;28;20622;-73
2022/04/06 12:28:43;;;;;;;4.43;3.30;;;14.80;99.90;;;;;;5135826;28;20604;-73
2022/04/06 12:31:10;;;;;;;3.67;2.60;;;14.90;99.90;;;;;;5135824;28;21138;-73
2022/04/06 12:33:51;;;;;;;4.27;2.90;;;14.90;99.90;;;;;;5135993;28;20611;-72
2022/04/06 12:36:27;;;;;;;2.93;2.70;;;15.10;99.90;;;;;;5136049;28;20622;-73
2022/04/06 12:39:10;;;;;;;2.90;2.70;;;14.90;99.90;;;;;;5136167;28;20619;-73
2022/04/06 12:41:58;;;;;;;3.13;2.93;;;15.00;99.90;;;;;;5118331;28;20608;-74
2022/04/06 12:44:33;;;;;;;5.77;3.43;;;14.60;99.90;;;;;;5117520;28;20965;-73
2022/04/06 12:47:00;;;;;;;4.60;3.40;;;14.50;99.90;;;;;;5135580;28;20955;-73
2022/04/06 12:49:36;;;;;;;2.67;2.47;;;14.90;99.90;;;;;;5136056;28;20598;-73
2022/04/06 12:52:16;;;;;;;5.80;3.30;;;16.10;99.90;;;;;;5117898;28;20571;-73
2022/04/06 12:54:49;;;;;;;3.33;2.60;;;15.80;99.90;;;;;;5135394;28;20632;-73
2022/04/06 12:57:36;;;;;;;4.33;3.30;;;15.30;99.90;;;;;;5135093;27;20998;-73
2022/04/06 13:00:22;;;;;;;3.00;2.80;;;15.70;99.90;;;;;;5139102;27;20548;-72
2022/04/06 13:02:50;;;;;;;3.70;2.90;;;15.30;99.90;;;;;;5138895;27;20726;-73
2022/04/06 13:05:19;;;;;;;3.63;2.77;;;16.00;99.90;;;;;;5139196;27;20683;-73